sensor_id;sensor_type;location;lat;lon;timestamp;P1;durP1;ratioP1;P2;durP2;ratioP2
7573;SDS011;3828;48.922;9.116;2022-08-19T00:01:59;12.63;;;11.47;;
7573;SDS011;3828;48.922;9.116;2022-08-19T00:04:27;12.67;;;10.63;;
7573;SDS011;3828;48.922;9.116;2022-08-19T00:06:56;12.07;;;10.87;;
7573;SDS011;3828;48.922;9.116;2022-08-19T00:09:24;13.10;;;11.83;;
7573;SDS011;3828;48.922;9.116;2022-08-19T00:11:51;12.63;;;11.43;;
7573;SDS011;3828;48.922;9.116;2022-08-19T00:14:20;12.43;;;11.20;;
7573;SDS011;3828;48.922;9.116;2022-08-19T00:16:48;12.47;;;11.20;;
7573;SDS011;3828;48.922;9.116;2022-08-19T00:19:16;13.03;;;11.70;;
7573;SDS011;3828;48.922;9.116;2022-08-19T00:21:44;12.07;;;10.93;;
7573;SDS011;3828;48.922;9.116;2022-08-19T00:24:12;13.07;;;11.77;;
7573;SDS011;3828;48.922;9.116;2022-08-19T00:26:40;11.27;;;10.10;;
7573;SDS011;3828;48.922;9.116;2022-08-19T00:29:09;11.93;;;10.77;;
7573;SDS011;3828;48.922;9.116;2022-08-19T00:31:37;12.87;;;11.67;;
7573;SDS011;3828;48.922;9.116;2022-08-19T00:34:03;11.53;;;10.53;;
7573;SDS011;3828;48.922;9.116;2022-08-19T00:36:30;11.23;;;10.10;;
7573;SDS011;3828;48.922;9.116;2022-08-19T00:38:59;11.57;;;10.47;;
7573;SDS011;3828;48.922;9.116;2022-08-19T00:41:27;12.30;;;11.07;;
7573;SDS011;3828;48.922;9.116;2022-08-19T00:44:00;12.83;;;11.63;;
7573;SDS011;3828;48.922;9.116;2022-08-19T00:46:30;13.00;;;11.83;;
7573;SDS011;3828;48.922;9.116;2022-08-19T00:48:57;13.70;;;11.73;;
7573;SDS011;3828;48.922;9.116;2022-08-19T00:51:25;12.60;;;11.20;;
7573;SDS011;3828;48.922;9.116;2022-08-19T00:53:58;12.80;;;11.60;;
7573;SDS011;3828;48.922;9.116;2022-08-19T00:56:26;12.17;;;11.03;;
7573;SDS011;3828;48.922;9.116;2022-08-19T00:58:54;11.70;;;10.50;;
7573;SDS011;3828;48.922;9.116;2022-08-19T01:01:22;12.47;;;11.37;;
7573;SDS011;3828;48.922;9.116;2022-08-19T01:03:49;14.67;;;11.97;;
7573;SDS011;3828;48.922;9.116;2022-08-19T01:06:16;12.43;;;11.13;;
7573;SDS011;3828;48.922;9.116;2022-08-19T01:08:43;13.83;;;11.57;;
7573;SDS011;3828;48.922;9.116;2022-08-19T01:11:11;12.10;;;11.00;;
7573;SDS011;3828;48.922;9.116;2022-08-19T01:13:39;13.43;;;12.03;;
7573;SDS011;3828;48.922;9.116;2022-08-19T01:16:07;15.90;;;12.10;;
7573;SDS011;3828;48.922;9.116;2022-08-19T01:18:36;14.17;;;11.30;;
7573;SDS011;3828;48.922;9.116;2022-08-19T01:21:07;13.10;;;11.70;;
7573;SDS011;3828;48.922;9.116;2022-08-19T01:23:42;12.33;;;11.10;;
7573;SDS011;3828;48.922;9.116;2022-08-19T01:26:11;15.27;;;13.10;;
7573;SDS011;3828;48.922;9.116;2022-08-19T01:28:39;14.40;;;12.90;;
7573;SDS011;3828;48.922;9.116;2022-08-19T01:31:07;14.77;;;13.20;;
7573;SDS011;3828;48.922;9.116;2022-08-19T01:33:37;13.23;;;11.93;;
7573;SDS011;3828;48.922;9.116;2022-08-19T01:36:05;14.23;;;12.70;;
7573;SDS011;3828;48.922;9.116;2022-08-19T01:38:34;13.53;;;12.23;;
7573;SDS011;3828;48.922;9.116;2022-08-19T01:41:05;13.90;;;11.67;;
7573;SDS011;3828;48.922;9.116;2022-08-19T01:43:32;15.90;;;14.30;;
7573;SDS011;3828;48.922;9.116;2022-08-19T01:46:00;15.37;;;13.57;;
7573;SDS011;3828;48.922;9.116;2022-08-19T01:48:32;14.07;;;12.43;;
7573;SDS011;3828;48.922;9.116;2022-08-19T01:50:59;11.97;;;10.83;;
7573;SDS011;3828;48.922;9.116;2022-08-19T01:53:26;15.27;;;13.60;;
7573;SDS011;3828;48.922;9.116;2022-08-19T01:55:53;15.10;;;13.50;;
7573;SDS011;3828;48.922;9.116;2022-08-19T01:58:22;14.50;;;13.00;;
7573;SDS011;3828;48.922;9.116;2022-08-19T02:00:53;18.73;;;13.33;;
7573;SDS011;3828;48.922;9.116;2022-08-19T02:03:19;16.97;;;13.27;;
7573;SDS011;3828;48.922;9.116;2022-08-19T02:05:46;14.27;;;12.80;;
7573;SDS011;3828;48.922;9.116;2022-08-19T02:08:15;13.63;;;12.23;;
7573;SDS011;3828;48.922;9.116;2022-08-19T02:10:43;17.90;;;14.00;;
7573;SDS011;3828;48.922;9.116;2022-08-19T02:13:10;14.03;;;12.63;;
7573;SDS011;3828;48.922;9.116;2022-08-19T02:15:39;16.37;;;14.67;;
7573;SDS011;3828;48.922;9.116;2022-08-19T02:18:06;14.50;;;13.00;;
7573;SDS011;3828;48.922;9.116;2022-08-19T02:20:34;15.07;;;13.57;;
7573;SDS011;3828;48.922;9.116;2022-08-19T02:23:01;16.23;;;14.53;;
7573;SDS011;3828;48.922;9.116;2022-08-19T02:25:28;16.07;;;14.40;;
7573;SDS011;3828;48.922;9.116;2022-08-19T02:27:55;16.17;;;14.47;;
7573;SDS011;3828;48.922;9.116;2022-08-19T02:30:22;17.17;;;15.40;;
7573;SDS011;3828;48.922;9.116;2022-08-19T02:32:50;16.83;;;15.03;;
7573;SDS011;3828;48.922;9.116;2022-08-19T02:35:17;17.50;;;15.33;;
7573;SDS011;3828;48.922;9.116;2022-08-19T02:37:44;16.73;;;14.90;;
7573;SDS011;3828;48.922;9.116;2022-08-19T02:40:29;16.67;;;14.97;;
7573;SDS011;3828;48.922;9.116;2022-08-19T02:42:57;17.40;;;14.50;;
7573;SDS011;3828;48.922;9.116;2022-08-19T02:45:23;17.43;;;14.83;;
7573;SDS011;3828;48.922;9.116;2022-08-19T02:47:52;16.40;;;14.70;;
7573;SDS011;3828;48.922;9.116;2022-08-19T02:50:18;17.30;;;15.40;;
7573;SDS011;3828;48.922;9.116;2022-08-19T02:52:45;18.73;;;15.00;;
7573;SDS011;3828;48.922;9.116;2022-08-19T02:55:12;17.23;;;15.33;;
7573;SDS011;3828;48.922;9.116;2022-08-19T02:57:40;16.87;;;15.07;;
7573;SDS011;3828;48.922;9.116;2022-08-19T03:00:07;16.93;;;15.20;;
7573;SDS011;3828;48.922;9.116;2022-08-19T03:02:36;16.87;;;15.17;;
7573;SDS011;3828;48.922;9.116;2022-08-19T03:05:05;16.87;;;15.27;;
7573;SDS011;3828;48.922;9.116;2022-08-19T03:07:36;17.67;;;15.77;;
7573;SDS011;3828;48.922;9.116;2022-08-19T03:10:04;18.00;;;16.10;;
7573;SDS011;3828;48.922;9.116;2022-08-19T03:12:34;16.23;;;14.63;;
7573;SDS011;3828;48.922;9.116;2022-08-19T03:15:02;17.57;;;15.83;;
7573;SDS011;3828;48.922;9.116;2022-08-19T03:17:31;17.67;;;15.37;;
7573;SDS011;3828;48.922;9.116;2022-08-19T03:20:00;17.53;;;15.70;;
7573;SDS011;3828;48.922;9.116;2022-08-19T03:22:28;17.47;;;15.67;;
7573;SDS011;3828;48.922;9.116;2022-08-19T03:24:55;18.10;;;16.30;;
7573;SDS011;3828;48.922;9.116;2022-08-19T03:27:22;17.57;;;15.77;;
7573;SDS011;3828;48.922;9.116;2022-08-19T03:29:49;18.67;;;16.40;;
7573;SDS011;3828;48.922;9.116;2022-08-19T03:32:16;19.03;;;16.57;;
7573;SDS011;3828;48.922;9.116;2022-08-19T03:34:43;17.43;;;15.77;;
7573;SDS011;3828;48.922;9.116;2022-08-19T03:37:10;18.27;;;16.37;;
7573;SDS011;3828;48.922;9.116;2022-08-19T03:39:39;18.47;;;16.50;;
7573;SDS011;3828;48.922;9.116;2022-08-19T03:42:07;20.03;;;18.00;;
7573;SDS011;3828;48.922;9.116;2022-08-19T03:44:37;19.13;;;16.20;;
7573;SDS011;3828;48.922;9.116;2022-08-19T03:47:05;21.07;;;18.17;;
7573;SDS011;3828;48.922;9.116;2022-08-19T03:49:32;24.87;;;17.93;;
7573;SDS011;3828;48.922;9.116;2022-08-19T03:52:00;20.13;;;18.03;;
7573;SDS011;3828;48.922;9.116;2022-08-19T03:54:29;19.77;;;17.87;;
7573;SDS011;3828;48.922;9.116;2022-08-19T03:56:58;18.70;;;16.87;;
7573;SDS011;3828;48.922;9.116;2022-08-19T03:59:25;18.50;;;16.60;;
7573;SDS011;3828;48.922;9.116;2022-08-19T04:01:55;18.03;;;16.27;;
7573;SDS011;3828;48.922;9.116;2022-08-19T04:04:24;20.37;;;18.27;;
7573;SDS011;3828;48.922;9.116;2022-08-19T04:06:51;18.07;;;16.17;;
7573;SDS011;3828;48.922;9.116;2022-08-19T04:09:18;19.93;;;17.83;;
7573;SDS011;3828;48.922;9.116;2022-08-19T04:11:48;20.03;;;18.13;;
7573;SDS011;3828;48.922;9.116;2022-08-19T04:14:20;19.23;;;17.30;;
7573;SDS011;3828;48.922;9.116;2022-08-19T04:16:49;19.07;;;17.17;;
7573;SDS011;3828;48.922;9.116;2022-08-19T04:19:17;20.00;;;17.90;;
7573;SDS011;3828;48.922;9.116;2022-08-19T04:21:45;18.87;;;16.97;;
7573;SDS011;3828;48.922;9.116;2022-08-19T04:24:13;19.73;;;17.70;;
7573;SDS011;3828;48.922;9.116;2022-08-19T04:26:41;21.77;;;19.50;;
7573;SDS011;3828;48.922;9.116;2022-08-19T04:29:12;22.13;;;18.33;;
7573;SDS011;3828;48.922;9.116;2022-08-19T04:31:42;20.50;;;18.40;;
7573;SDS011;3828;48.922;9.116;2022-08-19T04:34:11;21.23;;;17.37;;
7573;SDS011;3828;48.922;9.116;2022-08-19T04:36:40;21.17;;;18.73;;
7573;SDS011;3828;48.922;9.116;2022-08-19T04:39:10;22.53;;;20.20;;
7573;SDS011;3828;48.922;9.116;2022-08-19T04:41:39;20.83;;;18.63;;
7573;SDS011;3828;48.922;9.116;2022-08-19T04:44:23;19.63;;;17.33;;
7573;SDS011;3828;48.922;9.116;2022-08-19T04:46:51;20.63;;;18.30;;
7573;SDS011;3828;48.922;9.116;2022-08-19T04:49:19;21.20;;;19.20;;
7573;SDS011;3828;48.922;9.116;2022-08-19T04:51:47;22.53;;;19.00;;
7573;SDS011;3828;48.922;9.116;2022-08-19T04:54:18;21.30;;;18.83;;
7573;SDS011;3828;48.922;9.116;2022-08-19T04:56:47;23.70;;;19.23;;
7573;SDS011;3828;48.922;9.116;2022-08-19T04:59:15;20.77;;;18.63;;
7573;SDS011;3828;48.922;9.116;2022-08-19T05:01:43;19.17;;;17.23;;
7573;SDS011;3828;48.922;9.116;2022-08-19T05:04:17;20.30;;;18.23;;
7573;SDS011;3828;48.922;9.116;2022-08-19T05:06:45;20.23;;;18.03;;
7573;SDS011;3828;48.922;9.116;2022-08-19T05:09:12;20.50;;;18.40;;
7573;SDS011;3828;48.922;9.116;2022-08-19T05:11:40;19.93;;;17.93;;
7573;SDS011;3828;48.922;9.116;2022-08-19T05:14:07;19.93;;;17.93;;
7573;SDS011;3828;48.922;9.116;2022-08-19T05:16:37;19.70;;;17.63;;
7573;SDS011;3828;48.922;9.116;2022-08-19T05:19:04;22.00;;;19.80;;
7573;SDS011;3828;48.922;9.116;2022-08-19T05:21:50;19.80;;;17.57;;
7573;SDS011;3828;48.922;9.116;2022-08-19T05:24:35;21.23;;;19.13;;
7573;SDS011;3828;48.922;9.116;2022-08-19T05:27:02;20.57;;;18.47;;
7573;SDS011;3828;48.922;9.116;2022-08-19T05:29:31;20.27;;;18.07;;
7573;SDS011;3828;48.922;9.116;2022-08-19T05:31:59;21.13;;;19.00;;
7573;SDS011;3828;48.922;9.116;2022-08-19T05:34:26;20.97;;;18.90;;
7573;SDS011;3828;48.922;9.116;2022-08-19T05:36:55;20.33;;;18.23;;
7573;SDS011;3828;48.922;9.116;2022-08-19T05:39:25;19.90;;;18.00;;
7573;SDS011;3828;48.922;9.116;2022-08-19T05:41:54;20.77;;;18.33;;
7573;SDS011;3828;48.922;9.116;2022-08-19T05:44:23;21.00;;;18.70;;
7573;SDS011;3828;48.922;9.116;2022-08-19T05:46:51;19.43;;;17.60;;
7573;SDS011;3828;48.922;9.116;2022-08-19T05:49:19;20.43;;;18.33;;
7573;SDS011;3828;48.922;9.116;2022-08-19T05:51:48;21.27;;;17.47;;
7573;SDS011;3828;48.922;9.116;2022-08-19T05:54:16;20.23;;;18.13;;
7573;SDS011;3828;48.922;9.116;2022-08-19T05:56:44;21.17;;;18.40;;
7573;SDS011;3828;48.922;9.116;2022-08-19T05:59:12;20.57;;;18.47;;
7573;SDS011;3828;48.922;9.116;2022-08-19T06:01:41;20.47;;;18.47;;
7573;SDS011;3828;48.922;9.116;2022-08-19T06:04:10;21.60;;;19.50;;
7573;SDS011;3828;48.922;9.116;2022-08-19T06:06:38;21.03;;;18.87;;
7573;SDS011;3828;48.922;9.116;2022-08-19T06:09:06;19.83;;;17.83;;
7573;SDS011;3828;48.922;9.116;2022-08-19T06:11:37;22.43;;;19.07;;
7573;SDS011;3828;48.922;9.116;2022-08-19T06:14:06;25.33;;;18.93;;
7573;SDS011;3828;48.922;9.116;2022-08-19T06:16:35;20.20;;;18.10;;
7573;SDS011;3828;48.922;9.116;2022-08-19T06:19:04;19.50;;;17.60;;
7573;SDS011;3828;48.922;9.116;2022-08-19T06:21:33;20.40;;;18.30;;
7573;SDS011;3828;48.922;9.116;2022-08-19T06:24:02;20.03;;;18.03;;
7573;SDS011;3828;48.922;9.116;2022-08-19T06:26:29;20.90;;;18.73;;
7573;SDS011;3828;48.922;9.116;2022-08-19T06:28:58;20.10;;;18.00;;
7573;SDS011;3828;48.922;9.116;2022-08-19T06:31:25;19.90;;;17.30;;
7573;SDS011;3828;48.922;9.116;2022-08-19T06:33:53;21.57;;;18.60;;
7573;SDS011;3828;48.922;9.116;2022-08-19T06:36:21;19.50;;;17.50;;
7573;SDS011;3828;48.922;9.116;2022-08-19T06:38:52;18.37;;;16.40;;
7573;SDS011;3828;48.922;9.116;2022-08-19T06:41:19;18.90;;;16.93;;
7573;SDS011;3828;48.922;9.116;2022-08-19T06:43:46;19.40;;;17.43;;
7573;SDS011;3828;48.922;9.116;2022-08-19T06:46:15;18.50;;;16.60;;
7573;SDS011;3828;48.922;9.116;2022-08-19T06:48:43;17.33;;;15.60;;
7573;SDS011;3828;48.922;9.116;2022-08-19T06:51:10;18.37;;;16.47;;
7573;SDS011;3828;48.922;9.116;2022-08-19T06:53:40;16.90;;;15.20;;
7573;SDS011;3828;48.922;9.116;2022-08-19T06:56:12;18.43;;;16.60;;
7573;SDS011;3828;48.922;9.116;2022-08-19T06:58:39;18.70;;;16.70;;
7573;SDS011;3828;48.922;9.116;2022-08-19T07:01:06;18.73;;;16.40;;
7573;SDS011;3828;48.922;9.116;2022-08-19T07:03:35;17.83;;;16.03;;
7573;SDS011;3828;48.922;9.116;2022-08-19T07:06:03;17.53;;;15.77;;
7573;SDS011;3828;48.922;9.116;2022-08-19T07:08:32;17.37;;;15.57;;
7573;SDS011;3828;48.922;9.116;2022-08-19T07:11:01;16.63;;;15.03;;
7573;SDS011;3828;48.922;9.116;2022-08-19T07:13:28;17.63;;;15.63;;
7573;SDS011;3828;48.922;9.116;2022-08-19T07:15:57;16.37;;;14.63;;
7573;SDS011;3828;48.922;9.116;2022-08-19T07:18:24;17.53;;;13.83;;
7573;SDS011;3828;48.922;9.116;2022-08-19T07:21:01;17.37;;;15.73;;
7573;SDS011;3828;48.922;9.116;2022-08-19T07:23:29;17.90;;;15.90;;
7573;SDS011;3828;48.922;9.116;2022-08-19T07:25:55;15.93;;;14.43;;
7573;SDS011;3828;48.922;9.116;2022-08-19T07:28:22;17.27;;;14.73;;
7573;SDS011;3828;48.922;9.116;2022-08-19T07:30:49;16.87;;;15.20;;
7573;SDS011;3828;48.922;9.116;2022-08-19T07:33:16;16.63;;;14.93;;
7573;SDS011;3828;48.922;9.116;2022-08-19T07:35:43;17.47;;;15.60;;
7573;SDS011;3828;48.922;9.116;2022-08-19T07:38:11;15.43;;;13.90;;
7573;SDS011;3828;48.922;9.116;2022-08-19T07:40:38;15.60;;;13.90;;
7573;SDS011;3828;48.922;9.116;2022-08-19T07:43:06;16.50;;;14.90;;
7573;SDS011;3828;48.922;9.116;2022-08-19T07:45:33;15.23;;;13.63;;
7573;SDS011;3828;48.922;9.116;2022-08-19T07:47:59;16.13;;;14.43;;
7573;SDS011;3828;48.922;9.116;2022-08-19T07:50:26;15.20;;;13.50;;
7573;SDS011;3828;48.922;9.116;2022-08-19T07:52:53;16.97;;;14.40;;
7573;SDS011;3828;48.922;9.116;2022-08-19T07:55:23;14.93;;;13.57;;
7573;SDS011;3828;48.922;9.116;2022-08-19T07:57:51;15.03;;;13.57;;
7573;SDS011;3828;48.922;9.116;2022-08-19T08:00:18;15.77;;;14.10;;
7573;SDS011;3828;48.922;9.116;2022-08-19T08:02:45;15.23;;;13.67;;
7573;SDS011;3828;48.922;9.116;2022-08-19T08:05:12;15.33;;;13.73;;
7573;SDS011;3828;48.922;9.116;2022-08-19T08:07:56;15.30;;;13.70;;
7573;SDS011;3828;48.922;9.116;2022-08-19T08:10:42;14.80;;;13.20;;
7573;SDS011;3828;48.922;9.116;2022-08-19T08:13:09;14.37;;;12.93;;
7573;SDS011;3828;48.922;9.116;2022-08-19T08:15:35;16.53;;;14.10;;
7573;SDS011;3828;48.922;9.116;2022-08-19T08:18:04;14.80;;;13.30;;
7573;SDS011;3828;48.922;9.116;2022-08-19T08:20:31;14.13;;;12.83;;
7573;SDS011;3828;48.922;9.116;2022-08-19T08:22:57;14.20;;;12.90;;
7573;SDS011;3828;48.922;9.116;2022-08-19T08:25:43;16.23;;;13.50;;
7573;SDS011;3828;48.922;9.116;2022-08-19T08:28:10;14.13;;;12.70;;
7573;SDS011;3828;48.922;9.116;2022-08-19T08:30:37;13.60;;;12.30;;
7573;SDS011;3828;48.922;9.116;2022-08-19T08:33:06;12.87;;;11.57;;
7573;SDS011;3828;48.922;9.116;2022-08-19T08:35:34;13.67;;;12.27;;
7573;SDS011;3828;48.922;9.116;2022-08-19T08:38:01;12.80;;;11.50;;
7573;SDS011;3828;48.922;9.116;2022-08-19T08:40:30;13.33;;;12.03;;
7573;SDS011;3828;48.922;9.116;2022-08-19T08:43:06;14.40;;;12.30;;
7573;SDS011;3828;48.922;9.116;2022-08-19T08:45:37;12.67;;;11.33;;
7573;SDS011;3828;48.922;9.116;2022-08-19T08:48:12;13.13;;;11.30;;
7573;SDS011;3828;48.922;9.116;2022-08-19T08:50:44;14.17;;;11.87;;
7573;SDS011;3828;48.922;9.116;2022-08-19T08:53:13;14.87;;;12.53;;
7573;SDS011;3828;48.922;9.116;2022-08-19T08:55:43;13.30;;;11.97;;
7573;SDS011;3828;48.922;9.116;2022-08-19T08:58:13;13.37;;;12.07;;
7573;SDS011;3828;48.922;9.116;2022-08-19T09:00:45;14.17;;;11.73;;
7573;SDS011;3828;48.922;9.116;2022-08-19T09:03:16;14.43;;;12.43;;
7573;SDS011;3828;48.922;9.116;2022-08-19T09:05:47;12.20;;;11.10;;
7573;SDS011;3828;48.922;9.116;2022-08-19T09:08:22;11.83;;;10.80;;
7573;SDS011;3828;48.922;9.116;2022-08-19T09:10:59;14.47;;;12.30;;
7573;SDS011;3828;48.922;9.116;2022-08-19T09:13:33;12.40;;;11.10;;
7573;SDS011;3828;48.922;9.116;2022-08-19T09:16:16;11.70;;;10.27;;
7573;SDS011;3828;48.922;9.116;2022-08-19T09:18:46;12.87;;;11.57;;
7573;SDS011;3828;48.922;9.116;2022-08-19T09:21:18;13.60;;;11.63;;
7573;SDS011;3828;48.922;9.116;2022-08-19T09:23:45;11.67;;;10.57;;
7573;SDS011;3828;48.922;9.116;2022-08-19T09:26:13;11.83;;;10.73;;
7573;SDS011;3828;48.922;9.116;2022-08-19T09:28:43;11.40;;;10.37;;
7573;SDS011;3828;48.922;9.116;2022-08-19T09:31:11;11.40;;;10.40;;
7573;SDS011;3828;48.922;9.116;2022-08-19T09:33:38;12.20;;;10.87;;
7573;SDS011;3828;48.922;9.116;2022-08-19T09:36:07;9.83;;;9.00;;
7573;SDS011;3828;48.922;9.116;2022-08-19T09:38:35;12.13;;;9.70;;
7573;SDS011;3828;48.922;9.116;2022-08-19T09:41:04;11.10;;;10.10;;
7573;SDS011;3828;48.922;9.116;2022-08-19T09:43:32;11.50;;;10.30;;
7573;SDS011;3828;48.922;9.116;2022-08-19T09:46:03;12.33;;;9.60;;
7573;SDS011;3828;48.922;9.116;2022-08-19T09:48:31;10.00;;;8.93;;
7573;SDS011;3828;48.922;9.116;2022-08-19T09:51:02;11.23;;;10.23;;
7573;SDS011;3828;48.922;9.116;2022-08-19T09:53:30;10.97;;;9.80;;
7573;SDS011;3828;48.922;9.116;2022-08-19T09:55:57;10.00;;;9.03;;
7573;SDS011;3828;48.922;9.116;2022-08-19T09:58:23;10.57;;;9.57;;
7573;SDS011;3828;48.922;9.116;2022-08-19T10:00:52;10.93;;;9.80;;
7573;SDS011;3828;48.922;9.116;2022-08-19T10:03:21;9.33;;;8.43;;
7573;SDS011;3828;48.922;9.116;2022-08-19T10:05:48;9.13;;;8.43;;
7573;SDS011;3828;48.922;9.116;2022-08-19T10:08:16;9.70;;;8.77;;
7573;SDS011;3828;48.922;9.116;2022-08-19T10:10:45;10.00;;;9.00;;
7573;SDS011;3828;48.922;9.116;2022-08-19T10:13:13;9.87;;;8.93;;
7573;SDS011;3828;48.922;9.116;2022-08-19T10:15:42;12.07;;;8.57;;
7573;SDS011;3828;48.922;9.116;2022-08-19T10:18:09;9.10;;;8.20;;
7573;SDS011;3828;48.922;9.116;2022-08-19T10:20:37;9.87;;;8.10;;
7573;SDS011;3828;48.922;9.116;2022-08-19T10:23:04;9.50;;;7.70;;
7573;SDS011;3828;48.922;9.116;2022-08-19T10:25:31;10.73;;;8.57;;
7573;SDS011;3828;48.922;9.116;2022-08-19T10:27:59;8.47;;;7.67;;
7573;SDS011;3828;48.922;9.116;2022-08-19T10:30:26;10.27;;;7.00;;
7573;SDS011;3828;48.922;9.116;2022-08-19T10:32:54;9.50;;;7.90;;
7573;SDS011;3828;48.922;9.116;2022-08-19T10:35:20;7.60;;;7.00;;
7573;SDS011;3828;48.922;9.116;2022-08-19T10:37:48;8.00;;;6.63;;
7573;SDS011;3828;48.922;9.116;2022-08-19T10:40:15;6.63;;;6.00;;
7573;SDS011;3828;48.922;9.116;2022-08-19T10:42:42;9.33;;;6.97;;
7573;SDS011;3828;48.922;9.116;2022-08-19T10:45:09;8.40;;;5.93;;
7573;SDS011;3828;48.922;9.116;2022-08-19T10:47:36;6.67;;;6.07;;
7573;SDS011;3828;48.922;9.116;2022-08-19T10:50:03;6.50;;;6.00;;
7573;SDS011;3828;48.922;9.116;2022-08-19T10:52:55;6.70;;;6.00;;
7573;SDS011;3828;48.922;9.116;2022-08-19T10:55:23;8.47;;;6.20;;
7573;SDS011;3828;48.922;9.116;2022-08-19T10:58:11;8.73;;;6.77;;
7573;SDS011;3828;48.922;9.116;2022-08-19T11:00:39;7.10;;;6.50;;
7573;SDS011;3828;48.922;9.116;2022-08-19T11:03:07;8.13;;;6.50;;
7573;SDS011;3828;48.922;9.116;2022-08-19T11:05:34;6.90;;;6.20;;
7573;SDS011;3828;48.922;9.116;2022-08-19T11:08:04;6.67;;;6.10;;
7573;SDS011;3828;48.922;9.116;2022-08-19T11:10:32;9.60;;;7.13;;
7573;SDS011;3828;48.922;9.116;2022-08-19T11:12:59;7.67;;;6.77;;
7573;SDS011;3828;48.922;9.116;2022-08-19T11:15:25;6.67;;;6.10;;
7573;SDS011;3828;48.922;9.116;2022-08-19T11:17:53;7.13;;;6.50;;
7573;SDS011;3828;48.922;9.116;2022-08-19T11:20:20;6.87;;;6.20;;
7573;SDS011;3828;48.922;9.116;2022-08-19T11:22:48;7.90;;;6.77;;
7573;SDS011;3828;48.922;9.116;2022-08-19T11:25:19;7.90;;;6.20;;
7573;SDS011;3828;48.922;9.116;2022-08-19T11:27:45;7.13;;;6.53;;
7573;SDS011;3828;48.922;9.116;2022-08-19T11:30:16;6.93;;;6.33;;
7573;SDS011;3828;48.922;9.116;2022-08-19T11:32:43;8.10;;;7.40;;
7573;SDS011;3828;48.922;9.116;2022-08-19T11:35:10;7.50;;;6.80;;
7573;SDS011;3828;48.922;9.116;2022-08-19T11:37:37;7.07;;;6.37;;
7573;SDS011;3828;48.922;9.116;2022-08-19T11:40:06;8.20;;;7.37;;
7573;SDS011;3828;48.922;9.116;2022-08-19T11:42:34;7.37;;;6.63;;
7573;SDS011;3828;48.922;9.116;2022-08-19T11:45:19;7.30;;;6.70;;
7573;SDS011;3828;48.922;9.116;2022-08-19T11:47:45;8.00;;;7.13;;
7573;SDS011;3828;48.922;9.116;2022-08-19T11:50:13;8.13;;;7.33;;
7573;SDS011;3828;48.922;9.116;2022-08-19T11:52:40;7.47;;;6.87;;
7573;SDS011;3828;48.922;9.116;2022-08-19T11:55:08;7.93;;;7.13;;
7573;SDS011;3828;48.922;9.116;2022-08-19T11:57:36;7.73;;;6.97;;
7573;SDS011;3828;48.922;9.116;2022-08-19T12:00:03;6.20;;;5.67;;
7573;SDS011;3828;48.922;9.116;2022-08-19T12:02:32;8.07;;;7.37;;
7573;SDS011;3828;48.922;9.116;2022-08-19T12:04:59;7.73;;;6.83;;
7573;SDS011;3828;48.922;9.116;2022-08-19T12:07:27;7.73;;;7.10;;
7573;SDS011;3828;48.922;9.116;2022-08-19T12:09:55;6.73;;;6.03;;
7573;SDS011;3828;48.922;9.116;2022-08-19T12:12:22;7.63;;;6.93;;
7573;SDS011;3828;48.922;9.116;2022-08-19T12:14:51;6.63;;;5.93;;
7573;SDS011;3828;48.922;9.116;2022-08-19T12:17:23;7.13;;;6.07;;
7573;SDS011;3828;48.922;9.116;2022-08-19T12:19:50;6.70;;;6.10;;
7573;SDS011;3828;48.922;9.116;2022-08-19T12:22:17;6.77;;;6.07;;
7573;SDS011;3828;48.922;9.116;2022-08-19T12:24:45;7.43;;;6.53;;
7573;SDS011;3828;48.922;9.116;2022-08-19T12:27:13;7.80;;;6.43;;
7573;SDS011;3828;48.922;9.116;2022-08-19T12:29:39;6.43;;;5.70;;
7573;SDS011;3828;48.922;9.116;2022-08-19T12:32:07;6.43;;;5.93;;
7573;SDS011;3828;48.922;9.116;2022-08-19T12:34:35;5.57;;;5.17;;
7573;SDS011;3828;48.922;9.116;2022-08-19T12:37:02;5.73;;;5.23;;
7573;SDS011;3828;48.922;9.116;2022-08-19T12:39:33;5.53;;;5.13;;
7573;SDS011;3828;48.922;9.116;2022-08-19T12:42:01;6.17;;;5.10;;
7573;SDS011;3828;48.922;9.116;2022-08-19T12:44:28;5.33;;;4.93;;
7573;SDS011;3828;48.922;9.116;2022-08-19T12:46:57;5.73;;;5.23;;
7573;SDS011;3828;48.922;9.116;2022-08-19T12:49:25;7.67;;;5.63;;
7573;SDS011;3828;48.922;9.116;2022-08-19T12:51:53;6.13;;;5.53;;
7573;SDS011;3828;48.922;9.116;2022-08-19T12:54:20;5.93;;;5.43;;
7573;SDS011;3828;48.922;9.116;2022-08-19T12:56:47;5.80;;;5.30;;
7573;SDS011;3828;48.922;9.116;2022-08-19T12:59:14;4.97;;;4.57;;
7573;SDS011;3828;48.922;9.116;2022-08-19T13:01:42;5.90;;;4.67;;
7573;SDS011;3828;48.922;9.116;2022-08-19T13:04:09;5.17;;;4.67;;
7573;SDS011;3828;48.922;9.116;2022-08-19T13:06:38;5.10;;;4.70;;
7573;SDS011;3828;48.922;9.116;2022-08-19T13:09:05;5.00;;;4.50;;
7573;SDS011;3828;48.922;9.116;2022-08-19T13:11:32;5.23;;;4.83;;
7573;SDS011;3828;48.922;9.116;2022-08-19T13:13:59;4.93;;;4.33;;
7573;SDS011;3828;48.922;9.116;2022-08-19T13:16:28;4.73;;;4.33;;
7573;SDS011;3828;48.922;9.116;2022-08-19T13:18:55;4.60;;;4.20;;
7573;SDS011;3828;48.922;9.116;2022-08-19T13:21:24;5.17;;;4.40;;
7573;SDS011;3828;48.922;9.116;2022-08-19T13:23:53;4.60;;;4.20;;
7573;SDS011;3828;48.922;9.116;2022-08-19T13:26:20;4.13;;;3.80;;
7573;SDS011;3828;48.922;9.116;2022-08-19T13:28:47;5.13;;;4.67;;
7573;SDS011;3828;48.922;9.116;2022-08-19T13:31:32;4.40;;;4.00;;
7573;SDS011;3828;48.922;9.116;2022-08-19T13:34:18;4.90;;;4.50;;
7573;SDS011;3828;48.922;9.116;2022-08-19T13:36:53;4.93;;;4.53;;
7573;SDS011;3828;48.922;9.116;2022-08-19T13:39:21;6.10;;;5.23;;
7573;SDS011;3828;48.922;9.116;2022-08-19T13:41:48;4.90;;;4.50;;
7573;SDS011;3828;48.922;9.116;2022-08-19T13:44:15;4.60;;;4.20;;
7573;SDS011;3828;48.922;9.116;2022-08-19T13:46:44;5.20;;;4.70;;
7573;SDS011;3828;48.922;9.116;2022-08-19T13:49:11;4.10;;;3.80;;
7573;SDS011;3828;48.922;9.116;2022-08-19T13:51:40;5.30;;;4.90;;
7573;SDS011;3828;48.922;9.116;2022-08-19T13:54:07;5.03;;;4.10;;
7573;SDS011;3828;48.922;9.116;2022-08-19T13:56:38;4.93;;;4.20;;
7573;SDS011;3828;48.922;9.116;2022-08-19T13:59:06;5.30;;;4.50;;
7573;SDS011;3828;48.922;9.116;2022-08-19T14:01:34;5.17;;;4.70;;
7573;SDS011;3828;48.922;9.116;2022-08-19T14:04:00;4.67;;;4.27;;
7573;SDS011;3828;48.922;9.116;2022-08-19T14:06:27;6.60;;;4.90;;
7573;SDS011;3828;48.922;9.116;2022-08-19T14:08:54;4.40;;;3.93;;
7573;SDS011;3828;48.922;9.116;2022-08-19T14:11:21;6.53;;;4.77;;
7573;SDS011;3828;48.922;9.116;2022-08-19T14:13:49;5.13;;;4.73;;
7573;SDS011;3828;48.922;9.116;2022-08-19T14:16:17;5.67;;;5.27;;
7573;SDS011;3828;48.922;9.116;2022-08-19T14:18:44;6.57;;;5.53;;
7573;SDS011;3828;48.922;9.116;2022-08-19T14:21:14;5.73;;;5.27;;
7573;SDS011;3828;48.922;9.116;2022-08-19T14:23:43;6.37;;;5.07;;
7573;SDS011;3828;48.922;9.116;2022-08-19T14:26:11;5.33;;;4.93;;
7573;SDS011;3828;48.922;9.116;2022-08-19T14:28:40;5.80;;;5.20;;
7573;SDS011;3828;48.922;9.116;2022-08-19T14:31:09;6.73;;;5.00;;
7573;SDS011;3828;48.922;9.116;2022-08-19T14:33:36;5.17;;;4.67;;
7573;SDS011;3828;48.922;9.116;2022-08-19T14:36:04;6.07;;;5.50;;
7573;SDS011;3828;48.922;9.116;2022-08-19T14:38:31;5.87;;;5.37;;
7573;SDS011;3828;48.922;9.116;2022-08-19T14:43:44;5.37;;;4.87;;
7573;SDS011;3828;48.922;9.116;2022-08-19T14:46:13;5.20;;;4.80;;
7573;SDS011;3828;48.922;9.116;2022-08-19T14:48:41;5.67;;;5.17;;
7573;SDS011;3828;48.922;9.116;2022-08-19T14:51:08;6.07;;;5.57;;
7573;SDS011;3828;48.922;9.116;2022-08-19T14:53:35;6.37;;;5.67;;
7573;SDS011;3828;48.922;9.116;2022-08-19T14:56:06;5.63;;;4.93;;
7573;SDS011;3828;48.922;9.116;2022-08-19T14:58:34;5.50;;;5.10;;
7573;SDS011;3828;48.922;9.116;2022-08-19T15:01:01;5.00;;;4.60;;
7573;SDS011;3828;48.922;9.116;2022-08-19T15:03:31;5.87;;;5.27;;
7573;SDS011;3828;48.922;9.116;2022-08-19T15:05:58;9.07;;;7.40;;
7573;SDS011;3828;48.922;9.116;2022-08-19T15:08:26;6.40;;;5.80;;
7573;SDS011;3828;48.922;9.116;2022-08-19T15:10:54;6.17;;;4.93;;